Time;durP1;ratioP1;P1;durP2;ratioP2;P2;SDS_P1;SDS_P2;PMS_P1;PMS_P2;Temp;Humidity;BMP_temperature;BMP_pressure;BME280_temperature;BME280_humidity;BME280_pressure;Samples;Min_cycle;Max_cycle;Signal;HPM_P1;HPM_P2
2021/11/16 00:00:14;;;;;;;;;0.00;0.00;;;;;;;;6415571;22;8699;-81
2021/11/16 00:02:48;;;;;;;;;0.00;0.00;;;;;;;;6386598;22;8749;-81
2021/11/16 00:05:18;;;;;;;;;0.00;0.00;;;;;;;;6415785;22;8840;-81
2021/11/16 00:07:56;;;;;;;;;0.00;0.00;;;;;;;;6387057;22;8722;-81
2021/11/16 00:10:24;;;;;;;;;0.00;0.00;;;;;;;;6387170;22;8742;-81
2021/11/16 00:13:00;;;;;;;;;;;;;;;;;;;;;
2021/11/16 00:15:42;;;;;;;;;0.00;0.00;;;;;;;;6414388;22;36322;-81
2021/11/16 00:18:10;;;;;;;;;0.00;0.00;;;;;;;;6386929;22;8757;-81
2021/11/16 00:20:42;;;;;;;;;0.00;0.00;;;;;;;;6387138;22;8835;-81
2021/11/16 00:23:33;;;;;;;;;0.00;0.00;;;;;;;;6386974;22;8760;-81
2021/11/16 00:26:01;;;;;;;;;0.00;0.00;;;;;;;;6415422;22;8698;-81
2021/11/16 00:28:36;;;;;;;;;;;;;;;;;;;;;
2021/11/16 00:31:03;;;;;;;;;0.00;0.00;;;;;;;;6414733;22;36336;-81
2021/11/16 00:33:33;;;;;;;;;0.00;0.00;;;;;;;;6386985;22;8881;-81
2021/11/16 00:36:03;;;;;;;;;0.00;0.00;;;;;;;;6415625;22;8722;-81
2021/11/16 00:38:31;;;;;;;;;0.00;0.00;;;;;;;;6415847;22;9530;-81
2021/11/16 00:41:07;;;;;;;;;;;;;;;;;;;;;
2021/11/16 00:43:43;;;;;;;;;0.00;0.00;;;;;;;;6414581;22;35718;-81
2021/11/16 00:46:09;;;;;;;;;0.00;0.00;;;;;;;;6415758;22;8709;-81
2021/11/16 00:48:38;;;;;;;;;0.00;0.00;;;;;;;;6416222;22;8734;-81
2021/11/16 00:51:09;;;;;;;;;0.00;0.00;;;;;;;;6415215;22;9697;-81
2021/11/16 00:53:40;;;;;;;;;0.00;0.00;;;;;;;;6415451;22;8808;-81
2021/11/16 00:56:09;;;;;;;;;0.00;0.00;;;;;;;;6385882;22;8724;-81
2021/11/16 00:58:46;;;;;;;;;0.00;0.00;;;;;;;;6386735;22;8710;-81
2021/11/16 01:01:29;;;;;;;;;0.00;0.00;;;;;;;;6386422;22;8694;-81
2021/11/16 01:04:07;;;;;;;;;0.00;0.00;;;;;;;;6386758;22;8773;-81
2021/11/16 01:07:06;;;;;;;;;;;;;;;;;;;;;
2021/11/16 01:09:36;;;;;;;;;0.00;0.00;;;;;;;;6345440;22;36626;-81
2021/11/16 01:12:02;;;;;;;;;0.00;0.00;;;;;;;;6386149;22;9077;-81
2021/11/16 01:14:31;;;;;;;;;0.00;0.00;;;;;;;;6385951;22;8758;-81
2021/11/16 01:17:20;;;;;;;;;0.00;0.00;;;;;;;;6386114;22;8750;-81
2021/11/16 01:20:24;;;;;;;;;;;;;;;;;;;;;
2021/11/16 01:23:27;;;;;;;;;0.00;0.00;;;;;;;;6406639;22;37054;-81
2021/11/16 01:26:01;;;;;;;;;0.00;0.00;;;;;;;;6360496;22;8748;-81
2021/11/16 01:28:34;;;;;;;;;0.00;0.00;;;;;;;;6415109;22;8702;-81
2021/11/16 01:31:25;;;;;;;;;0.00;0.00;;;;;;;;6415499;22;9079;-81
2021/11/16 01:34:22;;;;;;;;;0.00;0.00;;;;;;;;6386630;22;8729;-81
2021/11/16 01:40:56;;;;;;;;;;;;;;;;;;;;;
2021/11/16 01:43:17;;;;;;;;;0.00;0.00;;;;;;;;6401824;22;8702;-81
2021/11/16 01:45:52;;;;;;;;;0.00;0.00;;;;;;;;6387386;22;8746;-81
2021/11/16 01:48:23;;;;;;;;;0.00;0.00;;;;;;;;6417040;22;8726;-81
2021/11/16 01:54:01;;;;;;;;;0.00;0.00;;;;;;;;6392105;22;8970;-81
2021/11/16 01:57:03;;;;;;;;;;;;;;;;;;;;;
2021/11/16 01:59:52;;;;;;;;;0.00;0.00;;;;;;;;6360016;22;36050;-81
2021/11/16 02:02:37;;;;;;;;;0.00;0.00;;;;;;;;6416766;22;8726;-81
2021/11/16 02:06:08;;;;;;;;;0.00;0.00;;;;;;;;6387423;22;8748;-81
2021/11/16 02:08:33;;;;;;;;;;;;;;;;;;;;;
2021/11/16 02:11:08;;;;;;;;;;;;;;;;;;;;;
2021/11/16 02:16:58;;;;;;;;;0.00;0.00;;;;;;;;6393292;22;8726;-81
2021/11/16 02:19:49;;;;;;;;;0.00;0.00;;;;;;;;6416564;22;8860;-81
2021/11/16 02:22:44;;;;;;;;;;;;;;;;;;;;;
2021/11/16 02:25:48;;;;;;;;;;;;;;;;;;;;;
2021/11/16 02:29:10;;;;;;;;;;;;;;;;;;;;;
2021/11/16 02:38:00;;;;;;;;;;;;;;;;;;;;;
2021/11/16 02:41:07;;;;;;;;;;;;;;;;;;;;;
2021/11/16 02:46:55;;;;;;;;;0.00;0.00;;;;;;;;6306786;22;8807;-81
2021/11/16 02:55:41;;;;;;;;;0.00;0.00;;;;;;;;6387317;22;8754;-81
2021/11/16 03:02:11;;;;;;;;;0.00;0.00;;;;;;;;6348663;22;8679;-81
2021/11/16 03:04:43;;;;;;;;;;;;;;;;;;;;;
2021/11/16 03:16:39;;;;;;;;;;;;;;;;;;;;;
2021/11/16 03:19:34;;;;;;;;;0.00;0.00;;;;;;;;6277795;22;38772;-81
2021/11/16 03:28:43;;;;;;;;;0.00;0.00;;;;;;;;6284717;22;8727;-81
2021/11/16 03:37:41;;;;;;;;;;;;;;;;;;;;;
2021/11/16 03:40:10;;;;;;;;;0.00;0.00;;;;;;;;6341308;22;35853;-81
2021/11/16 03:42:38;;;;;;;;;0.00;0.00;;;;;;;;6350969;22;8758;-81
2021/11/16 03:45:20;;;;;;;;;;;;;;;;;;;;;
2021/11/16 03:53:31;;;;;;;;;0.00;0.00;;;;;;;;6392993;22;8846;-80
2021/11/16 03:56:07;;;;;;;;;0.00;0.00;;;;;;;;6415890;22;8732;-80
2021/11/16 03:58:39;;;;;;;;;0.00;0.00;;;;;;;;6415544;22;8690;-80
2021/11/16 04:04:42;;;;;;;;;0.00;0.00;;;;;;;;6388906;22;8730;-81
2021/11/16 04:07:08;;;;;;;;;0.00;0.00;;;;;;;;6372513;22;8848;-81
2021/11/16 04:09:38;;;;;;;;;0.00;0.00;;;;;;;;6416222;22;8730;-80
2021/11/16 04:12:33;;;;;;;;;0.00;0.00;;;;;;;;6415977;22;10081;-80
2021/11/16 04:15:09;;;;;;;;;0.00;0.00;;;;;;;;6414516;22;8781;-81
2021/11/16 04:18:16;;;;;;;;;0.00;0.00;;;;;;;;6386107;22;8730;-81
2021/11/16 04:20:43;;;;;;;;;0.00;0.00;;;;;;;;6414556;22;8722;-80
2021/11/16 04:23:32;;;;;;;;;0.00;0.00;;;;;;;;6387560;22;8849;-80
2021/11/16 04:26:15;;;;;;;;;0.00;0.00;;;;;;;;6366011;22;8858;-81
2021/11/16 04:28:53;;;;;;;;;;;;;;;;;;;;;
2021/11/16 04:34:34;;;;;;;;;0.00;0.00;;;;;;;;6397826;22;8858;-81
2021/11/16 04:39:57;;;;;;;;;0.00;0.00;;;;;;;;6397612;22;8824;-81
2021/11/16 04:42:56;;;;;;;;;;;;;;;;;;;;;
2021/11/16 04:45:40;;;;;;;;;0.00;0.00;;;;;;;;6404527;22;8784;-81
2021/11/16 05:05:25;;;;;;;;;;;;;;;;;;;;;
2021/11/16 05:08:14;;;;;;;;;0.00;0.00;;;;;;;;6414376;22;36580;-81
2021/11/16 05:11:10;;;;;;;;;;;;;;;;;;;;;
2021/11/16 05:13:47;;;;;;;;;0.00;0.00;;;;;;;;6414687;22;36690;-80
2021/11/16 05:16:27;;;;;;;;;;;;;;;;;;;;;
2021/11/16 05:19:21;;;;;;;;;0.00;0.00;;;;;;;;6415099;22;35156;-81
2021/11/16 05:24:52;;;;;;;;;0.00;0.00;;;;;;;;6393077;22;9308;-81
2021/11/16 05:27:44;;;;;;;;;0.00;0.00;;;;;;;;6388176;22;8818;-80
2021/11/16 05:33:05;;;;;;;;;0.00;0.00;;;;;;;;6393248;22;8746;-81
2021/11/16 05:35:50;;;;;;;;;;;;;;;;;;;;;
2021/11/16 05:42:22;;;;;;;;;0.00;0.00;;;;;;;;6348643;22;8742;-81
2021/11/16 05:45:10;;;;;;;;;;;;;;;;;;;;;
2021/11/16 05:50:59;;;;;;;;;;;;;;;;;;;;;
2021/11/16 05:53:55;;;;;;;;;;;;;;;;;;;;;
2021/11/16 05:59:33;;;;;;;;;;;;;;;;;;;;;
2021/11/16 06:02:18;;;;;;;;;0.00;0.00;;;;;;;;6415049;22;36051;-80
2021/11/16 06:04:56;;;;;;;;;;;;;;;;;;;;;
2021/11/16 06:07:35;;;;;;;;;;;;;;;;;;;;;
2021/11/16 06:10:13;;;;;;;;;;;;;;;;;;;;;
2021/11/16 06:12:52;;;;;;;;;;;;;;;;;;;;;
2021/11/16 06:15:37;;;;;;;;;;;;;;;;;;;;;
2021/11/16 06:18:33;;;;;;;;;;;;;;;;;;;;;
2021/11/16 06:20:59;;;;;;;;;0.00;0.00;;;;;;;;6415035;22;36036;-81
2021/11/16 06:23:24;;;;;;;;;0.00;0.00;;;;;;;;6416650;22;8813;-80
2021/11/16 06:25:49;;;;;;;;;0.00;0.00;;;;;;;;6387483;22;8772;-80
2021/11/16 06:28:15;;;;;;;;;0.00;0.00;;;;;;;;6416232;22;8761;-80
2021/11/16 06:30:40;;;;;;;;;0.00;0.00;;;;;;;;6416402;22;8730;-80
2021/11/16 06:33:06;;;;;;;;;0.00;0.00;;;;;;;;6416723;22;8898;-80
2021/11/16 06:35:34;;;;;;;;;0.00;0.00;;;;;;;;6416896;22;9534;-80
2021/11/16 06:38:02;;;;;;;;;0.00;0.00;;;;;;;;6416300;22;8849;-80
2021/11/16 06:40:28;;;;;;;;;0.00;0.00;;;;;;;;6416711;22;9659;-80
2021/11/16 06:42:54;;;;;;;;;0.00;0.00;;;;;;;;6417649;22;8874;-79
2021/11/16 06:45:20;;;;;;;;;0.00;0.00;;;;;;;;6420836;22;8741;-79
2021/11/16 06:47:46;;;;;;;;;0.00;0.00;;;;;;;;6416559;22;8753;-79
2021/11/16 06:50:14;;;;;;;;;0.00;0.00;;;;;;;;6387111;22;8784;-80
2021/11/16 06:55:56;;;;;;;;;0.00;0.00;;;;;;;;6338490;22;8731;-81
2021/11/16 07:04:50;;;;;;;;;0.00;0.00;;;;;;;;6364274;22;8703;-82
2021/11/16 07:07:35;;;;;;;;;10.60;10.40;;;;;;;;6416056;22;8730;-81
2021/11/16 07:32:45;;;;;;;;;179.80;178.00;;;;;;;;6092810;23;8749;-80
2021/11/16 07:35:11;;;;;;;;;130.25;130.25;;;;;;;;6207764;23;11546;-80
2021/11/16 07:37:39;;;;;;;;;0.00;0.00;;;;;;;;6283602;22;9734;-80
2021/11/16 07:40:09;;;;;;;;;141.83;141.83;;;;;;;;6383972;22;8728;-80
2021/11/16 07:42:36;;;;;;;;;163.80;163.80;;;;;;;;6384166;22;8716;-80
2021/11/16 07:45:07;;;;;;;;;0.00;0.00;;;;;;;;6383864;22;8732;-80
2021/11/16 08:00:18;;;;;;;;;170.83;170.83;;;;;;;;6164199;23;8747;-79
2021/11/16 08:02:46;;;;;;;;;82.25;73.25;;;;;;;;6194964;23;8737;-80
2021/11/16 08:05:23;;;;;;;;;0.00;0.00;;;;;;;;6169641;23;8863;-80
2021/11/16 08:08:15;;;;;;;;;0.00;0.00;;;;;;;;6343396;22;8756;-80
2021/11/16 08:10:43;;;;;;;;;0.00;0.00;;;;;;;;6384189;22;8681;-80
2021/11/16 08:13:15;;;;;;;;;87.00;83.33;;;;;;;;6355098;22;9685;-80
2021/11/16 08:15:42;;;;;;;;;200.80;197.80;;;;;;;;6383467;22;8752;-80
2021/11/16 08:18:14;;;;;;;;;197.17;197.17;;;;;;;;6383488;22;10490;-81
2021/11/16 08:20:42;;;;;;;;;198.50;198.50;;;;;;;;6383648;22;8851;-80
2021/11/16 08:23:08;;;;;;;;;216.50;216.50;;;;;;;;6383142;22;8732;-80
2021/11/16 08:25:35;;;;;;;;;0.00;0.00;;;;;;;;6384437;22;8817;-80
2021/11/16 08:28:01;;;;;;;;;112.00;112.00;;;;;;;;6399790;22;8754;-80
2021/11/16 08:30:28;;;;;;;;;251.67;248.67;;;;;;;;6415324;22;8750;-80
2021/11/16 08:32:59;;;;;;;;;245.50;245.50;;;;;;;;6386481;22;9159;-80
2021/11/16 08:35:25;;;;;;;;;0.00;0.00;;;;;;;;6387131;22;8836;-81
2021/11/16 08:38:05;;;;;;;;;0.00;0.00;;;;;;;;6415953;22;8819;-80
2021/11/16 08:40:36;;;;;;;;;365.38;364.50;;;;;;;;6415334;22;8726;-80
2021/11/16 08:43:19;;;;;;;;;237.20;237.20;;;;;;;;6385376;22;8711;-81
2021/11/16 08:45:49;;;;;;;;;416.57;416.57;;;;;;;;6414342;22;8828;-80
2021/11/16 08:55:02;;;;;;;;;;;;;;;;;;;;;
2021/11/16 08:58:06;;;;;;;;;;;;;;;;;;;;;
2021/11/16 09:27:09;;;;;;;;;;;;;;;;;;;;;
2021/11/16 09:29:36;;;;;;;;;;;;;;;;;;;;;
2021/11/16 09:32:34;;;;;;;;;277.00;274.17;;;;;;;;6104673;22;35569;-81
2021/11/16 09:35:32;;;;;;;;;;;;;;;;;;;;;
2021/11/16 09:38:19;;;;;;;;;;;;;;;;;;;;;
2021/11/16 09:41:20;;;;;;;;;;;;;;;;;;;;;
2021/11/16 09:44:06;;;;;;;;;;;;;;;;;;;;;
2021/11/16 09:47:15;;;;;;;;;231.17;231.17;;;;;;;;6346750;22;35343;-81
2021/11/16 09:49:39;;;;;;;;;225.83;225.33;;;;;;;;6343262;22;8758;-81
2021/11/16 09:52:13;;;;;;;;;286.83;286.83;;;;;;;;6357145;22;8754;-81
2021/11/16 09:57:58;;;;;;;;;267.17;266.50;;;;;;;;6349637;22;9396;-81
2021/11/16 10:00:56;;;;;;;;;;;;;;;;;;;;;
2021/11/16 10:03:55;;;;;;;;;;;;;;;;;;;;;
2021/11/16 10:10:32;;;;;;;;;245.14;245.14;;;;;;;;6410466;22;8740;-81
2021/11/16 10:16:17;;;;;;;;;;;;;;;;;;;;;
2021/11/16 10:19:21;;;;;;;;;74.60;67.20;;;;;;;;6394869;22;36385;-81
2021/11/16 10:31:35;;;;;;;;;266.57;264.57;;;;;;;;6282669;22;8754;-81
2021/11/16 10:34:29;;;;;;;;;220.40;220.20;;;;;;;;6348353;22;9102;-80
2021/11/16 10:40:19;;;;;;;;;196.67;196.67;;;;;;;;6332540;22;9631;-81
2021/11/16 10:42:46;;;;;;;;;217.17;216.00;;;;;;;;6383300;22;8724;-80
2021/11/16 10:45:20;;;;;;;;;229.20;229.20;;;;;;;;6383561;22;8736;-80
2021/11/16 10:47:46;;;;;;;;;189.83;186.50;;;;;;;;6383190;22;8792;-80
2021/11/16 10:50:14;;;;;;;;;231.67;231.67;;;;;;;;6383354;22;8704;-80
2021/11/16 10:52:40;;;;;;;;;218.00;215.83;;;;;;;;6383967;22;8763;-80
2021/11/16 10:55:06;;;;;;;;;189.00;187.75;;;;;;;;6354583;22;8803;-81
2021/11/16 10:58:06;;;;;;;;;;;;;;;;;;;;;
2021/11/16 11:01:11;;;;;;;;;;;;;;;;;;;;;
2021/11/16 11:03:39;;;;;;;;;223.67;223.17;;;;;;;;6383087;22;8761;-81
2021/11/16 11:06:16;;;;;;;;;202.17;200.17;;;;;;;;6354607;22;9680;-81
2021/11/16 11:08:43;;;;;;;;;206.80;206.40;;;;;;;;6383300;22;8743;-80
2021/11/16 11:11:16;;;;;;;;;221.83;217.83;;;;;;;;6383250;22;9193;-80
2021/11/16 11:13:43;;;;;;;;;215.80;215.00;;;;;;;;6382977;22;8704;-80
2021/11/16 11:16:16;;;;;;;;;194.83;194.83;;;;;;;;6383759;22;10137;-80
2021/11/16 11:18:45;;;;;;;;;181.60;178.80;;;;;;;;6354934;22;8748;-80
2021/11/16 11:21:23;;;;;;;;;179.67;178.67;;;;;;;;6354490;22;8735;-80
2021/11/16 11:23:52;;;;;;;;;206.33;204.83;;;;;;;;6383697;22;8684;-80
2021/11/16 11:26:32;;;;;;;;;209.67;209.50;;;;;;;;6354821;22;8748;-80
2021/11/16 11:32:02;;;;;;;;;178.60;177.00;;;;;;;;6378304;22;8793;-80
2021/11/16 11:34:33;;;;;;;;;197.67;194.17;;;;;;;;6415271;22;9764;-80
2021/11/16 11:37:24;;;;;;;;;140.60;137.40;;;;;;;;6415634;22;8716;-80
2021/11/16 11:39:59;;;;;;;;;204.40;203.40;;;;;;;;6399726;22;8756;-80
2021/11/16 11:42:25;;;;;;;;;192.83;192.83;;;;;;;;6415448;22;8797;-79
2021/11/16 11:44:57;;;;;;;;;203.50;202.33;;;;;;;;6412643;22;8763;-79
2021/11/16 11:47:28;;;;;;;;;204.25;201.50;;;;;;;;6415021;22;8704;-80
2021/11/16 11:49:55;;;;;;;;;206.00;205.00;;;;;;;;6412768;22;9625;-80
2021/11/16 11:52:20;;;;;;;;;190.83;189.67;;;;;;;;6415164;22;10059;-80
2021/11/16 11:54:46;;;;;;;;;171.60;170.00;;;;;;;;6413375;22;8806;-80
2021/11/16 11:57:11;;;;;;;;;179.75;179.00;;;;;;;;6415301;22;8735;-80
2021/11/16 11:59:37;;;;;;;;;153.80;153.00;;;;;;;;6415686;22;8900;-80
2021/11/16 12:02:06;;;;;;;;;196.00;196.00;;;;;;;;6413007;22;8778;-80
2021/11/16 12:04:33;;;;;;;;;183.50;182.33;;;;;;;;6415932;22;9137;-79
2021/11/16 12:06:59;;;;;;;;;208.00;203.67;;;;;;;;6386355;22;9666;-79
2021/11/16 12:09:26;;;;;;;;;176.20;173.20;;;;;;;;6415620;22;8677;-80
2021/11/16 12:11:51;;;;;;;;;198.50;198.17;;;;;;;;6415248;22;8728;-80
2021/11/16 12:14:29;;;;;;;;;198.40;197.80;;;;;;;;6412922;22;8798;-79
2021/11/16 12:17:00;;;;;;;;;183.00;178.60;;;;;;;;6413222;22;8862;-80
2021/11/16 12:19:37;;;;;;;;;191.20;188.60;;;;;;;;6414858;22;8756;-79
2021/11/16 12:25:32;;;;;;;;;157.17;155.67;;;;;;;;6315742;22;8819;-81
2021/11/16 12:27:59;;;;;;;;;182.33;180.33;;;;;;;;6314104;22;8830;-80
2021/11/16 12:30:37;;;;;;;;;225.20;224.40;;;;;;;;6316335;22;8768;-80
2021/11/16 12:33:05;;;;;;;;;197.00;192.00;;;;;;;;6322571;22;8728;-80
2021/11/16 12:35:30;;;;;;;;;190.33;190.00;;;;;;;;6414342;22;9674;-81
2021/11/16 12:37:58;;;;;;;;;187.00;184.17;;;;;;;;6389944;22;8692;-80
2021/11/16 12:40:30;;;;;;;;;184.67;180.33;;;;;;;;6415052;22;8769;-80
2021/11/16 12:43:09;;;;;;;;;192.60;192.60;;;;;;;;6415248;22;8841;-80
2021/11/16 12:45:40;;;;;;;;;184.17;181.17;;;;;;;;6414827;22;8724;-80
2021/11/16 12:48:06;;;;;;;;;179.80;177.60;;;;;;;;6415292;22;8716;-80
2021/11/16 12:50:32;;;;;;;;;170.20;169.00;;;;;;;;6412939;22;8864;-80
2021/11/16 12:52:58;;;;;;;;;154.33;151.83;;;;;;;;6414984;22;8652;-80
2021/11/16 12:55:25;;;;;;;;;187.80;186.40;;;;;;;;6414769;22;9225;-80
2021/11/16 12:57:52;;;;;;;;;179.17;176.17;;;;;;;;6414500;22;8842;-80
2021/11/16 13:00:29;;;;;;;;;199.17;197.67;;;;;;;;6414916;22;8720;-80
2021/11/16 13:03:05;;;;;;;;;171.60;167.80;;;;;;;;6414900;22;8720;-81
2021/11/16 13:06:11;;;;;;;;;203.83;203.83;;;;;;;;6412124;22;8830;-82
2021/11/16 13:08:54;;;;;;;;;179.67;178.50;;;;;;;;6413559;22;8820;-82
2021/11/16 13:11:51;;;;;;;;;;;;;;;;;;;;;
2021/11/16 13:14:38;;;;;;;;;197.17;194.83;;;;;;;;6413013;22;35883;-82
2021/11/16 13:17:22;;;;;;;;;180.80;176.80;;;;;;;;6399059;22;8735;-82
2021/11/16 13:20:07;;;;;;;;;187.67;184.00;;;;;;;;6414296;22;8819;-82
2021/11/16 13:22:53;;;;;;;;;192.50;190.33;;;;;;;;6414491;22;8731;-82
2021/11/16 13:25:37;;;;;;;;;205.40;203.20;;;;;;;;6414741;22;8763;-82
2021/11/16 13:28:13;;;;;;;;;165.40;165.20;;;;;;;;6413284;22;8716;-82
2021/11/16 13:34:12;;;;;;;;;186.83;185.67;;;;;;;;6408115;22;8735;-82
2021/11/16 13:36:41;;;;;;;;;208.00;205.67;;;;;;;;6413486;22;8826;-81
2021/11/16 13:39:57;;;;;;;;;;;;;;;;;;;;;
2021/11/16 13:52:09;;;;;;;;;164.40;161.40;;;;;;;;6123286;23;8757;-82
2021/11/16 15:13:20;;;;;;;;;195.40;193.60;;;;;;;;6348279;22;8768;-81
2021/11/16 15:15:48;;;;;;;;;204.40;204.40;;;;;;;;6436274;22;8770;-80
2021/11/16 15:18:14;;;;;;;;;187.00;186.83;;;;;;;;6447444;22;8655;-80
2021/11/16 15:20:45;;;;;;;;;200.60;200.40;;;;;;;;6448049;22;9569;-80
2021/11/16 15:23:17;;;;;;;;;195.17;195.17;;;;;;;;6447311;22;8675;-81
2021/11/16 15:25:50;;;;;;;;;202.00;202.00;;;;;;;;6447617;22;8750;-81
2021/11/16 15:28:27;;;;;;;;;213.00;210.67;;;;;;;;6447425;22;8757;-81
2021/11/16 15:31:02;;;;;;;;;210.00;207.83;;;;;;;;6447619;22;8746;-81
2021/11/16 15:33:48;;;;;;;;;195.80;195.20;;;;;;;;6419220;22;9762;-80
2021/11/16 15:36:24;;;;;;;;;217.80;215.20;;;;;;;;6447340;22;9530;-80
2021/11/16 15:38:56;;;;;;;;;225.83;223.50;;;;;;;;6418566;22;8746;-80
2021/11/16 15:41:44;;;;;;;;;215.83;212.67;;;;;;;;6447318;22;8718;-81
2021/11/16 15:47:01;;;;;;;;;208.67;207.17;;;;;;;;6447502;22;8690;-81
2021/11/16 15:50:15;;;;;;;;;206.83;205.50;;;;;;;;6418572;22;8734;-81
2021/11/16 15:58:20;;;;;;;;;198.20;198.20;;;;;;;;6436544;22;8726;-81
2021/11/16 16:00:53;;;;;;;;;209.50;207.00;;;;;;;;6418029;22;11472;-81
2021/11/16 16:03:24;;;;;;;;;196.33;194.33;;;;;;;;6447639;22;8761;-81
2021/11/16 16:06:00;;;;;;;;;181.60;180.40;;;;;;;;6418375;22;8723;-81
2021/11/16 16:08:38;;;;;;;;;219.33;217.50;;;;;;;;6447425;22;8715;-81
2021/11/16 16:11:14;;;;;;;;;234.00;230.20;;;;;;;;6447680;22;8722;-81
2021/11/16 16:13:42;;;;;;;;;204.00;203.33;;;;;;;;6447280;22;8726;-80
2021/11/16 16:16:15;;;;;;;;;266.40;265.40;;;;;;;;6447691;22;8691;-81
2021/11/16 16:18:45;;;;;;;;;218.17;217.83;;;;;;;;6418293;22;8738;-81
2021/11/16 16:21:12;;;;;;;;;190.80;187.40;;;;;;;;6418373;22;8737;-80
2021/11/16 16:23:44;;;;;;;;;193.00;191.00;;;;;;;;6447942;22;8734;-81
2021/11/16 16:26:11;;;;;;;;;179.20;175.80;;;;;;;;6418525;22;8726;-81
2021/11/16 16:32:47;;;;;;;;;;;;;;;;;;;;;
2021/11/16 16:35:03;;;;;;;;;181.00;178.20;;;;;;;;6365169;22;8732;-80
2021/11/16 16:37:28;;;;;;;;;175.33;174.83;;;;;;;;6380021;22;8669;-80
2021/11/16 16:39:54;;;;;;;;;176.75;173.00;;;;;;;;6415724;22;9482;-79
2021/11/16 16:42:19;;;;;;;;;214.60;213.40;;;;;;;;6447656;22;8761;-80
2021/11/16 16:44:47;;;;;;;;;209.75;209.50;;;;;;;;6417633;22;8778;-79
2021/11/16 16:47:13;;;;;;;;;203.83;203.67;;;;;;;;6417939;22;8715;-80
2021/11/16 16:49:40;;;;;;;;;230.00;229.60;;;;;;;;6447614;22;8718;-80
2021/11/16 16:52:05;;;;;;;;;183.00;183.00;;;;;;;;6418409;22;8711;-80
2021/11/16 16:54:31;;;;;;;;;202.00;202.00;;;;;;;;6447664;22;8774;-80
2021/11/16 16:56:57;;;;;;;;;225.40;225.40;;;;;;;;6447047;22;8742;-80
2021/11/16 16:59:26;;;;;;;;;192.20;192.20;;;;;;;;6418435;22;8977;-80
2021/11/16 17:01:52;;;;;;;;;176.83;174.50;;;;;;;;6446695;22;8714;-80
2021/11/16 17:04:23;;;;;;;;;193.20;192.00;;;;;;;;6447174;22;8734;-80
2021/11/16 17:06:49;;;;;;;;;194.20;193.60;;;;;;;;6447632;22;8749;-79
2021/11/16 17:09:15;;;;;;;;;194.33;194.33;;;;;;;;6448727;22;8862;-79
2021/11/16 17:11:41;;;;;;;;;211.33;210.17;;;;;;;;6448864;22;8727;-79
2021/11/16 17:14:06;;;;;;;;;192.83;192.83;;;;;;;;6418539;22;8855;-79
2021/11/16 17:16:33;;;;;;;;;175.80;175.00;;;;;;;;6419649;22;8769;-80
2021/11/16 17:21:54;;;;;;;;;196.20;196.20;;;;;;;;6441176;22;8746;-81
2021/11/16 17:24:22;;;;;;;;;184.00;184.00;;;;;;;;6448757;22;9131;-81
2021/11/16 17:26:51;;;;;;;;;219.00;218.83;;;;;;;;6448425;22;8742;-81
2021/11/16 17:29:16;;;;;;;;;197.60;197.60;;;;;;;;6419478;22;8723;-81
2021/11/16 17:31:45;;;;;;;;;194.80;193.60;;;;;;;;6448358;22;8893;-81
2021/11/16 17:34:13;;;;;;;;;206.25;206.25;;;;;;;;6448908;22;8797;-81
2021/11/16 17:36:38;;;;;;;;;194.00;193.50;;;;;;;;6419402;22;10848;-79
2021/11/16 17:39:07;;;;;;;;;196.20;195.00;;;;;;;;6449324;22;8738;-80
2021/11/16 17:41:33;;;;;;;;;208.67;207.50;;;;;;;;6449108;22;8711;-80
2021/11/16 17:44:12;;;;;;;;;235.50;231.83;;;;;;;;6420617;22;8762;-81
2021/11/16 17:46:43;;;;;;;;;223.67;220.83;;;;;;;;6448969;22;8726;-82
2021/11/16 17:49:16;;;;;;;;;212.17;212.00;;;;;;;;6417668;22;8718;-82
2021/11/16 17:51:44;;;;;;;;;206.67;205.50;;;;;;;;6448101;22;8707;-81
2021/11/16 17:54:13;;;;;;;;;218.50;214.50;;;;;;;;6419362;22;8742;-81
2021/11/16 17:57:02;;;;;;;;;198.40;198.20;;;;;;;;6448512;22;8739;-82
2021/11/16 17:59:44;;;;;;;;;202.40;202.40;;;;;;;;6419625;22;8910;-82
2021/11/16 18:02:29;;;;;;;;;;;;;;;;;;;;;
2021/11/16 18:06:05;;;;;;;;;193.33;193.17;;;;;;;;6448034;22;36526;-81
2021/11/16 18:08:16;;;;;;;;;213.33;209.00;;;;;;;;6430464;22;8735;-82
2021/11/16 18:10:48;;;;;;;;;194.83;194.83;;;;;;;;6418902;22;8734;-82
2021/11/16 18:13:17;;;;;;;;;191.33;191.33;;;;;;;;6447388;22;8828;-82
2021/11/16 18:15:48;;;;;;;;;184.17;184.00;;;;;;;;6419055;22;8758;-82
2021/11/16 18:18:43;;;;;;;;;;;;;;;;;;;;;
2021/11/16 18:21:16;;;;;;;;;190.00;188.20;;;;;;;;6446958;22;35869;-82
2021/11/16 18:23:52;;;;;;;;;187.00;185.33;;;;;;;;6448425;22;8730;-81
2021/11/16 18:26:23;;;;;;;;;195.67;194.83;;;;;;;;6448619;22;8780;-82
2021/11/16 18:32:07;;;;;;;;;182.33;182.33;;;;;;;;6402784;22;8842;-81
2021/11/16 18:34:53;;;;;;;;;202.00;201.67;;;;;;;;6449526;22;8749;-81
2021/11/16 18:37:21;;;;;;;;;187.60;187.60;;;;;;;;6448705;22;8907;-82
2021/11/16 18:40:15;;;;;;;;;180.83;180.83;;;;;;;;6448030;22;8695;-82
2021/11/16 18:46:13;;;;;;;;;224.50;224.00;;;;;;;;6319777;22;8766;-81
2021/11/16 19:08:15;;;;;;;;;196.83;196.83;;;;;;;;6386729;22;8802;-82
2021/11/16 19:13:52;;;;;;;;;187.83;187.83;;;;;;;;6414752;22;8706;-83
2021/11/16 22:57:45;;;;;;;;;;;;;;;;;;;;;
